Time;durP1;ratioP1;P1;durP2;ratioP2;P2;SDS_P1;SDS_P2;PMS_P1;PMS_P2;Temp;Humidity;BMP_temperature;BMP_pressure;BME280_temperature;BME280_humidity;BME280_pressure;Samples;Min_cycle;Max_cycle;Signal;HPM_P1;HPM_P2
2022/04/04 00:00:56;;;;;;;7.53;2.05;;;;;;;-4.07;57.43;98330.66;4974068;28;20046;-66
2022/04/04 00:03:22;;;;;;;9.55;2.15;;;;;;;-4.10;56.04;98325.53;4974325;28;20324;-65
2022/04/04 00:05:48;;;;;;;9.20;2.65;;;;;;;-4.08;55.68;98331.59;4974386;28;20119;-65
2022/04/04 00:08:14;;;;;;;8.75;2.60;;;;;;;-4.19;60.24;98329.59;5006249;28;20042;-66
2022/04/04 00:10:40;;;;;;;8.13;2.38;;;;;;;-4.28;58.01;98330.13;4989950;28;20062;-65
2022/04/04 00:13:06;;;;;;;9.32;2.50;;;;;;;-4.30;58.98;98327.59;4992095;28;20464;-65
2022/04/04 00:15:32;;;;;;;7.90;2.30;;;;;;;-4.31;55.59;98340.88;5010412;28;20101;-65
2022/04/04 00:18:05;;;;;;;10.23;2.50;;;;;;;-4.33;56.88;98340.97;4976553;28;20532;-65
2022/04/04 00:20:30;;;;;;;7.32;2.20;;;;;;;-4.37;55.66;98347.38;4993006;28;20164;-65
2022/04/04 00:22:56;;;;;;;9.38;2.53;;;;;;;-4.41;57.16;98351.13;4975968;28;20127;-65
2022/04/04 00:25:22;;;;;;;7.93;2.10;;;;;;;-4.41;56.94;98345.84;4992594;28;20185;-65
2022/04/04 00:27:50;;;;;;;9.35;2.80;;;;;;;-4.43;58.01;98342.44;5009317;28;20041;-67
2022/04/04 00:30:15;;;;;;;10.88;2.53;;;;;;;-4.48;56.73;98339.25;4960805;28;20046;-65
2022/04/04 00:32:41;;;;;;;7.22;2.40;;;;;;;-4.50;57.71;98343.75;4993194;28;20133;-65
2022/04/04 00:35:07;;;;;;;10.07;2.53;;;;;;;-4.57;57.38;98342.41;4993048;28;20050;-66
2022/04/04 00:37:34;;;;;;;8.43;2.60;;;;;;;-4.66;58.59;98323.53;4960758;28;20565;-66
2022/04/04 00:40:00;;;;;;;9.73;2.80;;;;;;;-4.53;58.37;98347.44;4992900;28;20045;-64
2022/04/04 00:42:25;;;;;;;8.45;2.70;;;;;;;-4.61;59.34;98353.16;4976399;28;20422;-65
2022/04/04 00:44:51;;;;;;;6.90;2.25;;;;;;;-4.78;58.55;98326.91;4976344;28;20572;-64
2022/04/04 00:47:17;;;;;;;8.80;2.65;;;;;;;-4.68;57.47;98358.84;5010287;28;20136;-65
2022/04/04 00:49:43;;;;;;;15.65;2.80;;;;;;;-4.74;58.65;98346.03;4992648;28;20052;-66
2022/04/04 00:52:09;;;;;;;10.02;2.80;;;;;;;-4.70;59.16;98356.31;4992606;28;20054;-66
2022/04/04 00:54:35;;;;;;;11.48;3.15;;;;;;;-4.76;61.66;98348.72;4992854;28;20090;-65
2022/04/04 00:57:04;;;;;;;10.98;3.53;;;;;;;-4.79;64.63;98356.84;5009294;28;20077;-66
2022/04/04 00:59:30;;;;;;;11.63;3.78;;;;;;;-4.98;66.32;98335.09;4992695;28;20568;-68
2022/04/04 01:01:56;;;;;;;11.73;3.55;;;;;;;-4.96;67.85;98355.16;4976776;28;20100;-65
2022/04/04 01:04:22;;;;;;;10.10;3.33;;;;;;;-5.01;68.56;98356.34;4992715;28;20041;-66
2022/04/04 01:06:48;;;;;;;10.35;3.97;;;;;;;-5.17;69.03;98353.72;4992576;28;20052;-66
2022/04/04 01:09:14;;;;;;;10.43;3.15;;;;;;;-5.16;69.85;98353.63;4992839;28;20443;-65
2022/04/04 01:12:08;;;;;;;9.82;3.15;;;;;;;-5.23;71.59;98362.81;5009058;28;20045;-64
2022/04/04 01:14:36;;;;;;;11.45;3.53;;;;;;;-5.26;72.44;98363.00;4992076;28;20536;-65
2022/04/04 01:17:02;;;;;;;15.13;4.55;;;;;;;-5.31;72.86;98359.75;4992595;28;20034;-65
2022/04/04 01:19:28;;;;;;;11.43;3.58;;;;;;;-5.34;73.13;98359.91;4992030;28;20050;-65
2022/04/04 01:21:54;;;;;;;14.48;4.13;;;;;;;-5.33;73.58;98372.16;4992263;28;20092;-66
2022/04/04 01:24:23;;;;;;;11.43;4.30;;;;;;;-5.30;72.06;98365.84;4976065;28;20073;-66
2022/04/04 01:26:50;;;;;;;12.13;3.83;;;;;;;-5.32;73.15;98365.94;5009984;28;20084;-65
2022/04/04 01:29:16;;;;;;;18.10;4.40;;;;;;;-5.39;74.68;98361.94;4975751;28;20489;-64
2022/04/04 01:31:42;;;;;;;20.15;4.28;;;;;;;-5.47;75.71;98358.91;4976315;28;20521;-64
2022/04/04 01:34:08;;;;;;;12.48;3.53;;;;;;;-5.49;76.21;98376.53;4992128;28;20085;-65
2022/04/04 01:36:35;;;;;;;9.70;3.15;;;;;;;-5.60;73.82;98374.47;4993971;28;20064;-66
2022/04/04 01:39:01;;;;;;;9.35;3.42;;;;;;;-5.59;73.92;98371.78;4980573;28;20049;-63
2022/04/04 01:41:27;;;;;;;10.13;3.63;;;;;;;-5.75;73.49;98357.72;5013461;28;20545;-65
2022/04/04 01:43:53;;;;;;;13.18;4.03;;;;;;;-5.52;71.88;98381.97;4997538;28;20038;-65
2022/04/04 01:46:26;;;;;;;11.52;3.85;;;;;;;-5.59;74.47;98386.75;5012867;28;20474;-65
2022/04/04 01:48:54;;;;;;;10.40;3.75;;;;;;;-5.49;72.63;98392.34;5014225;28;20034;-65
2022/04/04 01:51:20;;;;;;;10.85;3.72;;;;;;;-5.49;71.81;98389.72;4996415;28;20110;-64
2022/04/04 01:53:47;;;;;;;12.55;3.55;;;;;;;-5.52;73.01;98393.38;4996120;28;20042;-64
2022/04/04 01:56:13;;;;;;;10.70;3.28;;;;;;;-5.67;74.10;98371.31;4996258;28;20046;-65
2022/04/04 01:58:40;;;;;;;11.13;4.22;;;;;;;-5.48;70.56;98399.31;4996149;28;20521;-65
2022/04/04 02:01:25;;;;;;;13.68;3.53;;;;;;;-5.53;73.01;98396.06;4995789;28;20077;-65
2022/04/04 02:03:53;;;;;;;14.07;3.80;;;;;;;-5.52;71.14;98403.03;4963431;28;20038;-66
2022/04/04 02:06:18;;;;;;;10.45;4.00;;;;;;;-5.51;71.84;98404.75;4979316;28;20104;-65
2022/04/04 02:08:45;;;;;;;13.38;4.18;;;;;;;-5.48;72.04;98415.97;5012016;28;20041;-64
2022/04/04 02:11:13;;;;;;;11.70;4.00;;;;;;;-5.50;71.47;98409.06;5013225;28;20458;-64
2022/04/04 02:13:39;;;;;;;10.80;3.85;;;;;;;-5.45;71.70;98407.03;5011939;28;20050;-65
2022/04/04 02:16:05;;;;;;;13.35;4.47;;;;;;;-5.58;71.06;98378.75;4978670;28;20048;-64
2022/04/04 02:18:32;;;;;;;18.55;4.30;;;;;;;-5.38;70.63;98416.31;4978825;28;20037;-64
2022/04/04 02:20:59;;;;;;;15.30;3.63;;;;;;;-5.37;69.29;98404.88;4995044;28;20145;-65
2022/04/04 02:23:26;;;;;;;15.10;3.28;;;;;;;-5.36;69.47;98403.91;5011562;28;20046;-65
2022/04/04 02:25:55;;;;;;;16.98;4.38;;;;;;;-5.40;68.33;98413.78;4995156;28;20076;-66
2022/04/04 02:28:21;;;;;;;11.52;3.55;;;;;;;-5.36;68.18;98417.09;5011177;28;20041;-66
2022/04/04 02:30:51;;;;;;;13.32;3.95;;;;;;;-5.28;68.00;98417.50;4979121;28;20052;-65
2022/04/04 02:33:19;;;;;;;13.00;3.80;;;;;;;-5.31;66.99;98415.03;4979314;28;20095;-65
2022/04/04 02:35:46;;;;;;;13.10;3.70;;;;;;;-5.28;67.51;98428.06;5011491;28;20448;-65
2022/04/04 02:38:14;;;;;;;15.25;4.57;;;;;;;-5.30;67.73;98427.31;4994643;28;20557;-64
2022/04/04 02:40:40;;;;;;;10.02;3.80;;;;;;;-5.27;68.62;98427.13;4978846;28;20441;-66
2022/04/04 02:43:08;;;;;;;9.65;3.67;;;;;;;-5.36;72.48;98428.47;5011204;28;20056;-65
2022/04/04 02:45:35;;;;;;;13.57;4.30;;;;;;;-5.37;72.30;98431.19;4978596;28;20451;-66
2022/04/04 02:48:00;;;;;;;10.70;4.18;;;;;;;-5.45;72.03;98430.72;5010537;28;20517;-66
2022/04/04 02:50:27;;;;;;;14.75;4.00;;;;;;;-5.44;71.92;98432.47;4994629;28;20083;-65
2022/04/04 02:52:53;;;;;;;11.60;4.50;;;;;;;-5.42;72.47;98435.84;4994086;28;20049;-66
2022/04/04 02:58:04;;;;;;;12.90;4.35;;;;;;;-5.43;74.29;98450.78;4977516;28;20482;-65
2022/04/04 03:00:29;;;;;;;14.25;4.95;;;;;;;-5.47;75.67;98438.72;4974725;28;20049;-65
2022/04/04 03:02:57;;;;;;;13.50;4.93;;;;;;;-5.54;75.02;98458.41;4975107;28;20061;-65
2022/04/04 03:05:23;;;;;;;16.15;5.63;;;;;;;-5.70;74.83;98418.88;4958846;28;20403;-64
2022/04/04 03:07:49;;;;;;;12.93;4.63;;;;;;;-5.54;74.24;98462.81;4974482;28;20066;-65
2022/04/04 03:10:15;;;;;;;18.70;4.50;;;;;;;-5.49;73.85;98456.38;4991872;28;20387;-64
2022/04/04 03:12:48;;;;;;;16.50;4.63;;;;;;;-5.45;73.78;98451.78;4990909;28;20053;-66
2022/04/04 03:15:19;;;;;;;14.25;4.90;;;;;;;-5.46;74.24;98460.63;4974597;28;20046;-65
2022/04/04 03:17:47;;;;;;;16.25;5.47;;;;;;;-5.44;75.69;98459.63;4958773;28;20053;-66
2022/04/04 03:20:14;;;;;;;18.35;5.90;;;;;;;-5.42;75.98;98467.44;4974522;28;20041;-66
2022/04/04 03:22:42;;;;;;;16.70;5.97;;;;;;;-5.38;74.69;98466.34;4958912;28;20441;-66
2022/04/04 03:25:10;;;;;;;17.35;5.72;;;;;;;-5.39;75.90;98467.28;4975852;28;20208;-64
2022/04/04 03:27:38;;;;;;;17.95;5.93;;;;;;;-5.32;75.69;98468.66;4992591;28;20046;-65
2022/04/04 03:30:05;;;;;;;17.27;6.90;;;;;;;-5.31;76.31;98475.63;4990748;28;20548;-66
2022/04/04 03:32:31;;;;;;;14.07;5.53;;;;;;;-5.39;74.52;98452.31;4992073;28;20065;-66
2022/04/04 03:34:58;;;;;;;14.88;5.50;;;;;;;-5.23;72.97;98472.56;4974611;28;20422;-65
2022/04/04 03:37:24;;;;;;;14.80;5.60;;;;;;;-5.16;73.29;98477.44;4974174;28;20451;-65
2022/04/04 03:39:51;;;;;;;12.80;5.22;;;;;;;-5.12;72.60;98473.72;4974363;28;20068;-64
2022/04/04 03:42:17;;;;;;;17.70;6.60;;;;;;;-5.14;73.58;98456.28;4958047;28;20068;-66
2022/04/04 03:44:43;;;;;;;15.95;5.47;;;;;;;-5.09;74.05;98449.81;4974390;28;20069;-66
2022/04/04 03:47:10;;;;;;;20.25;6.57;;;;;;;-4.86;72.76;98476.72;4973925;28;20082;-66
2022/04/04 03:49:37;;;;;;;20.88;7.10;;;;;;;-4.78;70.13;98474.50;4974137;28;20344;-67
2022/04/04 03:52:04;;;;;;;15.75;6.00;;;;;;;-4.70;70.57;98477.56;4974451;28;20061;-66
2022/04/04 03:54:31;;;;;;;20.13;7.18;;;;;;;-4.64;71.70;98479.88;4973587;28;20046;-66
2022/04/04 03:56:57;;;;;;;16.02;7.22;;;;;;;-4.51;71.53;98489.72;4974332;28;20077;-66
2022/04/04 03:59:23;;;;;;;28.13;8.73;;;;;;;-4.58;71.62;98488.38;4957279;28;20042;-66
2022/04/04 04:01:49;;;;;;;21.33;8.65;;;;;;;-4.44;70.70;98491.09;4974583;28;20181;-66
2022/04/04 04:04:16;;;;;;;23.45;6.75;;;;;;;-4.32;68.39;98493.00;4969214;28;20133;-66
2022/04/04 04:06:42;;;;;;;20.48;7.13;;;;;;;-4.24;68.75;98490.81;4969973;28;20112;-67
2022/04/04 04:09:08;;;;;;;23.02;8.15;;;;;;;-4.17;67.68;98497.44;4957710;28;20255;-65
2022/04/04 04:11:34;;;;;;;22.08;6.85;;;;;;;-4.01;67.95;98501.84;4975142;28;20088;-66
2022/04/04 04:14:00;;;;;;;20.65;6.43;;;;;;;-3.91;68.29;98497.72;4970233;28;20498;-67
2022/04/04 04:16:27;;;;;;;24.20;8.85;;;;;;;-3.81;67.69;98493.59;4942033;28;20050;-65
2022/04/04 04:18:53;;;;;;;30.55;8.82;;;;;;;-3.64;66.46;98496.09;4987399;28;20437;-66
2022/04/04 04:21:19;;;;;;;19.95;6.72;;;;;;;-3.70;65.80;98454.19;4970825;28;20513;-66
2022/04/04 04:23:45;;;;;;;17.85;6.22;;;;;;;-3.34;66.43;98503.13;4977885;28;20140;-70
2022/04/04 04:26:13;;;;;;;20.77;6.75;;;;;;;-3.25;62.98;98497.28;4954276;28;20049;-68
2022/04/04 04:28:46;;;;;;;22.77;6.53;;;;;;;-3.12;64.33;98507.09;4972865;28;20046;-68
2022/04/04 04:31:17;;;;;;;27.92;6.55;;;;;;;-2.93;63.29;98500.56;4995204;28;20069;-68
2022/04/04 04:33:43;;;;;;;19.42;7.40;;;;;;;-2.77;61.89;98497.84;5006683;28;20037;-65
2022/04/04 04:36:09;;;;;;;24.13;6.22;;;;;;;-2.68;61.05;98493.75;4990995;28;20049;-66
2022/04/04 04:38:35;;;;;;;21.05;6.35;;;;;;;-2.55;61.39;98496.47;4975010;28;20041;-67
2022/04/04 04:41:02;;;;;;;19.20;6.15;;;;;;;-2.51;58.97;98503.28;4992717;28;20056;-66
2022/04/04 04:43:28;;;;;;;18.92;6.35;;;;;;;-2.54;57.81;98490.22;4976358;28;20053;-67
2022/04/04 04:45:54;;;;;;;19.10;7.20;;;;;;;-2.53;58.48;98494.56;4960305;28;20069;-67
2022/04/04 04:48:20;;;;;;;23.85;7.10;;;;;;;-2.50;58.19;98489.09;4976167;28;20374;-66
2022/04/04 04:50:47;;;;;;;20.55;6.75;;;;;;;-2.35;58.94;98503.97;4991509;28;20103;-68
2022/04/04 04:53:14;;;;;;;21.98;6.80;;;;;;;-2.24;57.37;98501.47;5009094;28;20045;-67
2022/04/04 04:55:40;;;;;;;30.42;8.00;;;;;;;-2.00;57.90;98504.34;4992271;28;20544;-66
2022/04/04 04:58:06;;;;;;;21.30;6.78;;;;;;;-1.89;57.43;98505.44;4959954;28;20049;-66
2022/04/04 05:00:32;;;;;;;20.02;6.90;;;;;;;-1.78;55.39;98513.50;4975772;28;20489;-66
2022/04/04 05:05:43;;;;;;;22.67;6.35;;;;;;;-1.57;55.89;98508.56;4994549;28;20056;-67
2022/04/04 05:08:09;;;;;;;28.60;7.15;;;;;;;-1.45;55.33;98505.09;5008499;28;20211;-65
2022/04/04 05:10:35;;;;;;;27.20;8.18;;;;;;;-1.33;55.04;98498.94;4961531;28;20673;-66
2022/04/04 05:13:01;;;;;;;23.23;6.78;;;;;;;-1.23;54.63;98499.19;4964190;28;20409;-66
2022/04/04 05:15:27;;;;;;;25.42;6.82;;;;;;;-1.02;54.13;98512.75;5012286;28;20075;-66
2022/04/04 05:17:53;;;;;;;21.52;7.20;;;;;;;-0.79;52.12;98504.03;4980277;28;20045;-67
2022/04/04 05:20:19;;;;;;;32.78;7.72;;;;;;;-0.47;51.92;98502.69;4963538;28;20548;-67
2022/04/04 05:22:46;;;;;;;17.83;6.03;;;;;;;-0.18;49.93;98500.56;4979833;28;20081;-66
2022/04/04 05:25:12;;;;;;;23.77;6.95;;;;;;;0.08;49.79;98507.47;4995378;28;20128;-66
2022/04/04 05:27:39;;;;;;;16.92;6.13;;;;;;;-0.22;50.35;98507.06;4979604;28;20055;-67
2022/04/04 05:30:06;;;;;;;23.73;6.75;;;;;;;0.66;48.77;98508.41;4963581;28;20133;-67
2022/04/04 05:32:32;;;;;;;17.45;6.10;;;;;;;1.76;44.67;98511.38;4979749;28;20041;-66
2022/04/04 05:34:58;;;;;;;18.05;7.15;;;;;;;2.48;43.84;98508.09;4963108;28;20030;-67
2022/04/04 05:37:25;;;;;;;21.60;11.63;;;;;;;2.68;43.02;98506.41;4980071;28;20057;-67
2022/04/04 05:39:51;;;;;;;16.75;7.53;;;;;;;2.89;42.06;98512.59;4964283;28;20432;-67
2022/04/04 05:42:17;;;;;;;20.85;6.57;;;;;;;2.97;42.54;98504.78;4964298;28;20599;-67
2022/04/04 05:44:43;;;;;;;19.77;7.50;;;;;;;3.28;40.10;98507.47;4979800;28;20049;-67
2022/04/04 05:47:13;;;;;;;17.95;6.50;;;;;;;4.21;39.23;98511.69;4979911;28;20072;-66
2022/04/04 05:49:40;;;;;;;17.05;7.05;;;;;;;4.11;38.74;98501.81;4996331;28;20088;-67
2022/04/04 05:52:06;;;;;;;16.60;6.95;;;;;;;3.47;39.35;98512.88;5012867;28;20482;-66
2022/04/04 05:54:32;;;;;;;15.55;7.10;;;;;;;4.33;38.00;98515.91;4996414;28;20054;-67
2022/04/04 05:56:58;;;;;;;14.85;6.45;;;;;;;4.76;37.63;98510.13;5012627;28;20065;-67
2022/04/04 05:59:25;;;;;;;13.77;6.10;;;;;;;5.16;36.08;98508.22;4964302;28;20045;-67
2022/04/04 06:01:50;;;;;;;18.02;5.50;;;;;;;5.33;35.74;98510.13;4979699;28;20037;-67
2022/04/04 06:04:16;;;;;;;11.52;4.65;;;;;;;5.52;33.98;98504.72;4963490;28;20409;-66
2022/04/04 06:06:42;;;;;;;12.07;4.72;;;;;;;5.57;34.15;98513.16;4979328;28;20038;-68
2022/04/04 06:09:08;;;;;;;13.32;4.60;;;;;;;5.51;34.36;98503.00;4995623;28;20045;-66
2022/04/04 06:11:34;;;;;;;9.88;4.20;;;;;;;6.21;32.46;98500.66;4963264;28;20082;-67
2022/04/04 06:14:00;;;;;;;9.85;5.07;;;;;;;6.57;31.61;98498.00;4963422;28;20132;-68
2022/04/04 06:16:26;;;;;;;9.60;4.53;;;;;;;7.25;30.55;98518.84;5011625;28;20054;-69
2022/04/04 06:18:53;;;;;;;10.50;4.70;;;;;;;8.41;28.18;98511.16;4978926;28;20049;-69
2022/04/04 06:21:19;;;;;;;15.75;4.82;;;;;;;9.22;27.57;98501.38;4995118;28;20429;-68
2022/04/04 06:23:44;;;;;;;10.30;4.43;;;;;;;9.63;26.14;98512.91;4978676;28;20097;-67
2022/04/04 06:26:12;;;;;;;10.45;4.32;;;;;;;8.39;26.43;98500.53;4979112;28;20439;-67
2022/04/04 06:28:38;;;;;;;11.20;4.03;;;;;;;8.82;26.38;98506.63;4995503;28;20077;-68
2022/04/04 06:31:04;;;;;;;10.57;3.80;;;;;;;8.90;26.28;98519.25;4962655;28;20096;-68
2022/04/04 06:33:30;;;;;;;11.98;4.40;;;;;;;8.90;26.32;98506.63;4995124;28;20049;-68
2022/04/04 06:35:56;;;;;;;9.23;3.80;;;;;;;8.31;26.72;98513.94;5011484;28;20057;-67
2022/04/04 06:38:22;;;;;;;9.68;3.60;;;;;;;7.96;26.69;98509.63;4995273;28;20120;-67
2022/04/04 06:40:49;;;;;;;9.93;3.80;;;;;;;7.84;27.13;98517.16;4963372;28;20077;-68
2022/04/04 06:43:19;;;;;;;10.07;3.65;;;;;;;8.11;25.49;98512.53;4979175;28;20510;-67
2022/04/04 06:45:45;;;;;;;9.18;3.42;;;;;;;8.62;25.65;98510.66;5012295;28;20220;-66
2022/04/04 06:48:12;;;;;;;7.88;3.30;;;;;;;8.42;25.44;98510.97;4995698;28;20505;-67
2022/04/04 06:50:38;;;;;;;8.25;3.47;;;;;;;9.33;25.26;98509.97;5011135;28;20038;-67
2022/04/04 06:53:04;;;;;;;9.43;3.60;;;;;;;9.51;24.15;98517.00;5011143;28;20140;-66
2022/04/04 06:55:33;;;;;;;7.95;3.53;;;;;;;9.99;23.58;98515.16;5011069;28;20141;-68
2022/04/04 06:57:58;;;;;;;8.77;2.90;;;;;;;10.37;23.48;98513.47;4995826;28;20054;-67
2022/04/04 07:00:24;;;;;;;10.18;3.40;;;;;;;10.82;22.81;98515.34;4994942;28;20049;-67
2022/04/04 07:02:50;;;;;;;7.45;3.03;;;;;;;10.85;22.21;98496.03;5012283;28;20055;-67
2022/04/04 07:05:17;;;;;;;10.63;3.47;;;;;;;11.13;23.32;98514.41;4978457;28;20087;-68
2022/04/04 07:07:43;;;;;;;10.02;2.85;;;;;;;11.00;21.77;98515.03;4995074;28;20395;-68
2022/04/04 07:10:10;;;;;;;7.53;3.22;;;;;;;10.85;21.89;98512.25;4978324;28;20461;-67
2022/04/04 07:12:43;;;;;;;7.53;3.30;;;;;;;11.73;21.89;98521.56;4995964;28;20054;-68
2022/04/04 07:15:10;;;;;;;8.75;2.95;;;;;;;11.31;21.51;98517.63;4979486;28;20477;-68
2022/04/04 07:17:41;;;;;;;7.63;3.13;;;;;;;10.71;21.87;98510.34;4962464;28;20041;-68
2022/04/04 07:20:08;;;;;;;7.95;3.13;;;;;;;11.40;22.66;98514.84;4994708;28;20081;-66
2022/04/04 07:22:39;;;;;;;10.57;2.90;;;;;;;11.19;21.01;98520.94;4962983;28;20506;-66
2022/04/04 07:25:07;;;;;;;7.70;2.78;;;;;;;10.99;21.55;98513.34;4978131;28;20053;-68
2022/04/04 07:27:39;;;;;;;8.15;2.80;;;;;;;11.42;22.75;98523.63;5010817;28;20061;-67
2022/04/04 07:30:06;;;;;;;7.35;2.72;;;;;;;11.44;21.75;98516.13;4978079;28;20042;-67
2022/04/04 07:32:35;;;;;;;7.00;2.70;;;;;;;11.66;21.06;98517.94;4978212;28;20046;-68
2022/04/04 07:35:01;;;;;;;8.63;2.80;;;;;;;11.77;21.51;98517.50;5009301;28;20045;-69
2022/04/04 07:37:27;;;;;;;10.07;3.20;;;;;;;11.92;20.49;98497.69;4962288;28;20045;-68
2022/04/04 07:39:52;;;;;;;7.28;3.05;;;;;;;11.79;20.72;98507.31;4978689;28;20072;-68
2022/04/04 07:42:18;;;;;;;8.35;2.50;;;;;;;12.55;21.77;98504.31;5010868;28;20421;-67
2022/04/04 07:44:44;;;;;;;7.88;2.60;;;;;;;12.51;20.73;98487.59;4994170;28;20285;-67
2022/04/04 07:47:10;;;;;;;8.15;2.67;;;;;;;12.44;19.88;98496.69;4994463;28;20042;-68
2022/04/04 07:49:36;;;;;;;7.10;2.92;;;;;;;12.86;21.03;98505.88;4962022;28;20128;-67
2022/04/04 07:52:02;;;;;;;8.55;3.00;;;;;;;11.95;20.75;98491.91;4978166;28;20071;-68
2022/04/04 07:54:28;;;;;;;6.68;2.78;;;;;;;12.40;20.04;98495.38;4960962;28;20069;-67
2022/04/04 07:56:56;;;;;;;14.27;2.78;;;;;;;12.28;19.15;98503.16;4978016;28;20168;-68
2022/04/04 07:59:24;;;;;;;7.03;3.05;;;;;;;12.45;19.04;98495.66;4993620;28;20050;-68
2022/04/04 08:01:50;;;;;;;8.68;3.30;;;;;;;13.31;19.41;98503.78;4977717;28;20096;-68
2022/04/04 08:04:17;;;;;;;9.27;3.05;;;;;;;12.98;19.57;98504.28;4977134;28;20510;-66
2022/04/04 08:06:43;;;;;;;12.43;2.90;;;;;;;13.52;17.82;98501.00;4977110;28;20441;-67
2022/04/04 08:09:09;;;;;;;8.52;3.08;;;;;;;13.93;18.49;98492.06;5009460;28;20054;-67
2022/04/04 08:11:35;;;;;;;8.15;3.22;;;;;;;14.66;17.51;98497.78;4993331;28;20129;-68
2022/04/04 08:14:01;;;;;;;10.88;3.22;;;;;;;13.98;18.22;98495.84;5009595;28;20076;-68
2022/04/04 08:16:27;;;;;;;8.85;3.28;;;;;;;13.80;19.36;98492.00;4978294;28;20041;-67
2022/04/04 08:18:53;;;;;;;7.97;2.63;;;;;;;14.29;17.55;98497.22;5010591;28;20394;-69
2022/04/04 08:21:20;;;;;;;7.53;3.67;;;;;;;14.77;17.80;98496.34;4977598;28;20041;-68
2022/04/04 08:23:46;;;;;;;11.20;3.08;;;;;;;14.07;18.00;98499.22;4993123;28;20056;-68
2022/04/04 08:26:12;;;;;;;8.32;3.33;;;;;;;14.37;18.18;98494.34;5010967;28;20061;-68
2022/04/04 08:28:38;;;;;;;11.10;3.30;;;;;;;14.47;19.51;98488.50;4960923;28;20073;-68
2022/04/04 08:31:04;;;;;;;8.27;3.80;;;;;;;13.09;18.14;98471.25;4961098;28;20095;-68
2022/04/04 08:33:30;;;;;;;12.88;3.50;;;;;;;14.63;18.55;98493.63;4992773;28;20073;-67
2022/04/04 08:35:57;;;;;;;30.60;5.45;;;;;;;15.50;17.28;98494.47;4960629;28;20561;-68
2022/04/04 08:38:23;;;;;;;12.13;3.15;;;;;;;15.27;17.98;98500.38;5009040;28;20050;-67
2022/04/04 08:40:50;;;;;;;9.68;3.22;;;;;;;16.74;16.62;98489.91;4992722;28;20188;-69
2022/04/04 08:43:19;;;;;;;7.88;3.22;;;;;;;15.47;16.69;98475.88;4993027;28;20049;-68
2022/04/04 08:45:48;;;;;;;7.45;3.25;;;;;;;15.48;17.46;98496.59;4976911;28;20057;-68
2022/04/04 08:48:15;;;;;;;13.82;3.78;;;;;;;16.36;17.20;98496.19;4960838;28;20053;-68
2022/04/04 08:50:41;;;;;;;6.78;2.80;;;;;;;16.62;17.97;98493.31;4976522;28;20064;-68
2022/04/04 08:53:07;;;;;;;45.67;6.05;;;;;;;17.38;16.38;98497.00;4972346;28;20334;-67
2022/04/04 08:55:37;;;;;;;14.80;4.32;;;;;;;17.28;17.01;98496.66;4957325;28;20046;-69
2022/04/04 08:58:02;;;;;;;10.32;4.20;;;;;;;18.16;16.96;98476.44;4973087;28;20082;-69
2022/04/04 09:00:29;;;;;;;138.32;14.80;;;;;;;17.65;15.40;98496.75;4957183;28;20081;-68
2022/04/04 09:03:03;;;;;;;11.27;3.92;;;;;;;17.47;15.67;98495.66;4974380;28;20415;-67
2022/04/04 09:05:31;;;;;;;8.38;3.97;;;;;;;18.30;15.19;98488.91;4974250;28;20073;-68
2022/04/04 09:08:05;;;;;;;8.30;3.78;;;;;;;16.30;17.80;98488.84;4990030;28;20498;-67
2022/04/04 09:10:36;;;;;;;8.38;3.70;;;;;;;17.30;16.41;98489.09;4978013;28;20112;-68
2022/04/04 09:13:15;;;;;;;15.52;3.75;;;;;;;17.02;16.87;98465.78;4977205;28;20058;-68
2022/04/04 09:15:54;;;;;;;43.80;6.68;;;;;;;16.99;17.13;98479.88;4992693;28;20095;-68
2022/04/04 09:18:41;;;;;;;14.70;4.13;;;;;;;16.76;16.79;98487.81;4992603;28;20054;-68
2022/04/04 09:21:12;;;;;;;19.55;4.53;;;;;;;15.59;17.22;98479.59;4976442;28;20058;-68
2022/04/04 09:23:58;;;;;;;107.15;11.13;;;;;;;15.99;18.45;98485.00;5008392;28;20592;-67
2022/04/04 09:26:37;;;;;;;139.98;12.40;;;;;;;15.57;18.75;98492.59;4992017;28;20084;-67
2022/04/04 09:29:13;;;;;;;21.42;4.00;;;;;;;15.28;17.88;98485.69;4992024;28;20066;-70
2022/04/04 09:32:05;;;;;;;12.48;3.95;;;;;;;14.73;18.06;98487.75;4976767;28;20050;-68
2022/04/04 09:34:53;;;;;;;10.35;4.00;;;;;;;15.69;18.07;98497.44;4993083;28;20052;-69
2022/04/04 09:37:21;;;;;;;9.02;3.20;;;;;;;16.47;19.56;98484.56;4975272;28;20081;-68
2022/04/04 09:39:49;;;;;;;10.70;3.40;;;;;;;15.34;17.99;98497.66;4992375;28;20061;-68
2022/04/04 09:42:16;;;;;;;23.55;4.15;;;;;;;16.89;18.01;98493.16;4976111;28;20098;-68
2022/04/04 09:44:56;;;;;;;9.10;3.40;;;;;;;16.88;17.57;98491.50;4992384;28;20116;-68
2022/04/04 09:47:23;;;;;;;11.20;3.20;;;;;;;15.19;18.38;98490.53;4992468;28;20065;-67
2022/04/04 09:49:49;;;;;;;15.88;3.80;;;;;;;15.88;17.99;98496.56;4992046;28;20049;-68
2022/04/04 09:52:15;;;;;;;13.35;3.70;;;;;;;16.23;17.76;98488.88;4992190;28;20046;-68
2022/04/04 09:54:42;;;;;;;9.63;3.80;;;;;;;16.87;18.86;98489.84;4992407;28;20151;-68
2022/04/04 09:57:12;;;;;;;11.98;3.20;;;;;;;16.88;18.28;98484.13;4976583;28;20046;-67
2022/04/04 09:59:39;;;;;;;9.55;3.30;;;;;;;16.25;17.84;98491.41;5011799;28;20537;-68
2022/04/04 10:02:05;;;;;;;8.27;3.72;;;;;;;16.82;16.98;98487.78;4963254;28;20421;-69
2022/04/04 10:04:34;;;;;;;11.50;3.85;;;;;;;16.75;17.50;98480.69;4994487;28;20551;-67
2022/04/04 10:07:02;;;;;;;;;;;;;;;17.07;17.45;98501.44;4963636;28;20466;-68
2022/04/04 10:09:29;;;;;;;17.70;4.53;;;;;;;16.90;18.57;98494.03;4963031;28;19965;-68
2022/04/04 10:11:55;;;;;;;8.73;3.92;;;;;;;16.79;18.50;98487.38;5012318;28;20061;-68
2022/04/04 10:14:21;;;;;;;8.40;3.60;;;;;;;17.67;17.27;98489.19;4963130;28;20034;-68
2022/04/04 10:16:48;;;;;;;9.23;3.92;;;;;;;17.31;18.45;98501.69;4979009;28;20041;-68
2022/04/04 10:19:14;;;;;;;28.80;5.63;;;;;;;17.78;17.90;98496.66;4962965;28;20037;-68
2022/04/04 10:21:40;;;;;;;8.55;3.67;;;;;;;16.84;19.22;98476.63;4995032;28;20588;-68
2022/04/04 10:24:08;;;;;;;8.65;3.10;;;;;;;16.42;18.51;98491.72;4977983;28;20128;-68
2022/04/04 10:26:35;;;;;;;7.97;3.60;;;;;;;17.24;17.64;98489.97;4979117;28;20088;-68
2022/04/04 10:29:12;;;;;;;11.43;3.83;;;;;;;17.23;19.54;98488.31;4963030;28;20068;-68
2022/04/04 10:31:52;;;;;;;8.73;3.40;;;;;;;16.54;19.33;98485.38;4995109;28;20046;-68
2022/04/04 10:34:22;;;;;;;8.68;2.85;;;;;;;15.13;19.19;98477.75;4978571;28;20044;-68
2022/04/04 10:36:55;;;;;;;12.88;3.47;;;;;;;16.03;19.25;98483.50;4995145;28;20115;-66
2022/04/04 10:39:44;;;;;;;6.30;2.50;;;;;;;16.04;19.91;98490.63;4995585;28;20069;-68
2022/04/04 10:42:37;;;;;;;9.18;2.63;;;;;;;14.97;20.14;98485.50;4995803;28;20084;-68
2022/04/04 10:45:08;;;;;;;8.90;2.72;;;;;;;14.46;20.95;98484.13;4979939;28;20045;-67
2022/04/04 10:47:37;;;;;;;6.13;2.00;;;;;;;14.42;20.62;98439.34;4979568;28;20045;-66
2022/04/04 10:50:24;;;;;;;8.43;2.17;;;;;;;14.79;22.29;98461.63;4995733;28;20457;-67
2022/04/04 10:52:51;;;;;;;11.07;2.33;;;;;;;13.20;20.66;98486.13;4979179;28;20148;-67
2022/04/04 10:55:40;;;;;;;6.05;1.95;;;;;;;12.07;23.03;98490.41;4978791;28;20045;-68
2022/04/04 10:58:09;;;;;;;;;;;;;;;10.99;23.30;98485.47;5011628;28;20042;-67
2022/04/04 11:00:55;;;;;;;16.17;10.95;;;;;;;10.63;24.71;98480.69;4979016;28;19921;-67
2022/04/04 11:03:35;;;;;;;7.95;3.30;;;;;;;12.20;22.91;98479.72;4994804;28;20120;-67
2022/04/04 11:09:15;;;;;;;7.88;2.30;;;;;;;12.92;22.62;98480.69;5011445;28;20061;-68
2022/04/04 11:11:54;;;;;;;9.18;2.08;;;;;;;10.56;24.90;98485.13;4978866;28;20054;-67
2022/04/04 11:14:37;;;;;;;6.43;2.15;;;;;;;10.59;24.58;98479.38;4995417;28;20532;-68
2022/04/04 11:17:36;;;;;;;8.10;2.10;;;;;;;11.14;23.35;98477.38;5004077;28;20073;-66
2022/04/04 11:20:33;;;;;;;7.97;2.22;;;;;;;10.91;23.87;98466.63;4943626;28;20065;-66
2022/04/04 11:23:03;;;;;;;10.65;2.33;;;;;;;10.14;24.45;98470.19;4973457;28;20054;-67
2022/04/04 11:25:34;;;;;;;8.27;3.50;;;;;;;12.42;22.58;98477.06;4973557;28;20451;-66
2022/04/04 11:28:01;;;;;;;8.32;2.45;;;;;;;11.57;23.97;98481.16;4941875;28;20109;-67
2022/04/04 11:30:27;;;;;;;7.70;2.90;;;;;;;13.27;21.51;98479.75;4973334;28;20073;-67
2022/04/04 11:32:56;;;;;;;8.13;2.35;;;;;;;12.75;22.52;98475.50;4973175;28;20050;-66
2022/04/04 11:35:23;;;;;;;;;;;;;;;12.15;23.79;98487.59;4974535;28;20494;-66
2022/04/04 11:37:58;;;;;;;8.75;2.80;;;;;;;14.08;22.00;98478.34;4957444;28;19932;-68
2022/04/04 11:40:37;;;;;;;8.30;3.15;;;;;;;15.00;20.46;98482.38;4957733;28;20068;-67
2022/04/04 11:43:09;;;;;;;7.25;2.80;;;;;;;15.05;20.05;98475.25;4947161;28;20034;-67